sensor_id;sensor_type;location;lat;lon;timestamp;temperature;humidity
59847;DHT22;45728;48.788;2.302;2024-01-30T00:00:14;10.40;99.90
59847;DHT22;45728;48.788;2.302;2024-01-30T00:02:41;10.50;99.90
59847;DHT22;45728;48.788;2.302;2024-01-30T00:05:09;10.50;99.90
59847;DHT22;45728;48.788;2.302;2024-01-30T00:07:35;10.50;99.90
59847;DHT22;45728;48.788;2.302;2024-01-30T00:10:01;10.50;99.90
59847;DHT22;45728;48.788;2.302;2024-01-30T00:12:27;10.50;99.90
59847;DHT22;45728;48.788;2.302;2024-01-30T00:14:53;10.50;99.90
59847;DHT22;45728;48.788;2.302;2024-01-30T00:17:19;10.50;99.90
59847;DHT22;45728;48.788;2.302;2024-01-30T00:19:46;10.50;99.90
59847;DHT22;45728;48.788;2.302;2024-01-30T00:22:12;10.50;99.90
59847;DHT22;45728;48.788;2.302;2024-01-30T00:24:38;10.50;99.90
59847;DHT22;45728;48.788;2.302;2024-01-30T00:27:04;10.50;99.90
59847;DHT22;45728;48.788;2.302;2024-01-30T00:29:30;10.50;99.90
59847;DHT22;45728;48.788;2.302;2024-01-30T00:31:59;10.50;99.90
59847;DHT22;45728;48.788;2.302;2024-01-30T00:34:26;10.50;99.90
59847;DHT22;45728;48.788;2.302;2024-01-30T00:36:52;10.50;99.90
59847;DHT22;45728;48.788;2.302;2024-01-30T00:39:18;10.50;99.90
59847;DHT22;45728;48.788;2.302;2024-01-30T00:41:45;10.60;99.90
59847;DHT22;45728;48.788;2.302;2024-01-30T00:44:11;10.60;99.90
59847;DHT22;45728;48.788;2.302;2024-01-30T00:46:37;10.60;99.90
59847;DHT22;45728;48.788;2.302;2024-01-30T00:49:03;10.60;99.90
59847;DHT22;45728;48.788;2.302;2024-01-30T00:51:29;10.60;99.90
59847;DHT22;45728;48.788;2.302;2024-01-30T00:53:55;10.60;99.90
59847;DHT22;45728;48.788;2.302;2024-01-30T00:56:21;10.60;99.90
59847;DHT22;45728;48.788;2.302;2024-01-30T00:58:48;10.60;99.90
59847;DHT22;45728;48.788;2.302;2024-01-30T01:01:14;10.60;99.90
59847;DHT22;45728;48.788;2.302;2024-01-30T01:03:40;10.60;99.90
59847;DHT22;45728;48.788;2.302;2024-01-30T01:06:09;10.60;99.90
59847;DHT22;45728;48.788;2.302;2024-01-30T01:08:35;10.60;99.90
59847;DHT22;45728;48.788;2.302;2024-01-30T01:11:02;10.60;99.90
59847;DHT22;45728;48.788;2.302;2024-01-30T01:13:29;10.50;99.90
59847;DHT22;45728;48.788;2.302;2024-01-30T01:15:55;10.70;99.90
59847;DHT22;45728;48.788;2.302;2024-01-30T01:18:21;10.70;99.90
59847;DHT22;45728;48.788;2.302;2024-01-30T01:20:47;10.80;99.90
59847;DHT22;45728;48.788;2.302;2024-01-30T01:23:13;10.80;99.90
59847;DHT22;45728;48.788;2.302;2024-01-30T01:25:40;10.90;99.90
59847;DHT22;45728;48.788;2.302;2024-01-30T01:28:06;10.90;99.90
59847;DHT22;45728;48.788;2.302;2024-01-30T01:30:32;11.00;99.90
59847;DHT22;45728;48.788;2.302;2024-01-30T01:32:58;11.00;99.90
59847;DHT22;45728;48.788;2.302;2024-01-30T01:35:27;11.00;99.90
59847;DHT22;45728;48.788;2.302;2024-01-30T01:37:54;11.10;99.90
59847;DHT22;45728;48.788;2.302;2024-01-30T01:40:26;11.00;99.90
59847;DHT22;45728;48.788;2.302;2024-01-30T01:42:53;11.00;99.90
59847;DHT22;45728;48.788;2.302;2024-01-30T01:45:20;11.10;99.90
59847;DHT22;45728;48.788;2.302;2024-01-30T01:47:48;11.10;99.90
59847;DHT22;45728;48.788;2.302;2024-01-30T01:50:16;11.20;99.90
59847;DHT22;45728;48.788;2.302;2024-01-30T01:52:46;11.20;99.90
59847;DHT22;45728;48.788;2.302;2024-01-30T01:55:13;11.20;99.90
59847;DHT22;45728;48.788;2.302;2024-01-30T01:57:41;11.20;99.90
59847;DHT22;45728;48.788;2.302;2024-01-30T02:00:08;11.20;99.90
59847;DHT22;45728;48.788;2.302;2024-01-30T02:02:36;11.30;99.90
59847;DHT22;45728;48.788;2.302;2024-01-30T02:05:03;11.30;99.90
59847;DHT22;45728;48.788;2.302;2024-01-30T02:07:29;11.30;99.90
59847;DHT22;45728;48.788;2.302;2024-01-30T02:09:56;11.30;99.90
59847;DHT22;45728;48.788;2.302;2024-01-30T02:12:22;11.30;99.90
59847;DHT22;45728;48.788;2.302;2024-01-30T02:14:49;11.30;99.90
59847;DHT22;45728;48.788;2.302;2024-01-30T02:17:18;11.20;99.90
59847;DHT22;45728;48.788;2.302;2024-01-30T02:19:44;11.20;99.90
59847;DHT22;45728;48.788;2.302;2024-01-30T02:22:10;11.20;99.90
59847;DHT22;45728;48.788;2.302;2024-01-30T02:24:36;11.20;99.90
59847;DHT22;45728;48.788;2.302;2024-01-30T02:27:02;11.20;99.90
59847;DHT22;45728;48.788;2.302;2024-01-30T02:29:28;11.30;99.90
59847;DHT22;45728;48.788;2.302;2024-01-30T02:31:54;11.30;99.90
59847;DHT22;45728;48.788;2.302;2024-01-30T02:34:20;11.20;99.90
59847;DHT22;45728;48.788;2.302;2024-01-30T02:36:47;11.30;99.90
59847;DHT22;45728;48.788;2.302;2024-01-30T02:39:31;11.30;99.90
59847;DHT22;45728;48.788;2.302;2024-01-30T02:41:57;11.30;99.90
59847;DHT22;45728;48.788;2.302;2024-01-30T02:44:23;11.30;99.90
59847;DHT22;45728;48.788;2.302;2024-01-30T02:46:50;11.30;99.90
59847;DHT22;45728;48.788;2.302;2024-01-30T02:49:16;11.20;99.90
59847;DHT22;45728;48.788;2.302;2024-01-30T02:51:42;11.20;99.90
59847;DHT22;45728;48.788;2.302;2024-01-30T02:54:08;11.20;99.90
59847;DHT22;45728;48.788;2.302;2024-01-30T02:56:34;11.20;99.90
59847;DHT22;45728;48.788;2.302;2024-01-30T02:59:00;11.20;99.90
59847;DHT22;45728;48.788;2.302;2024-01-30T03:01:26;11.20;99.90
59847;DHT22;45728;48.788;2.302;2024-01-30T03:03:52;11.20;99.90
59847;DHT22;45728;48.788;2.302;2024-01-30T03:06:18;11.20;99.90
59847;DHT22;45728;48.788;2.302;2024-01-30T03:08:46;11.10;99.90
59847;DHT22;45728;48.788;2.302;2024-01-30T03:11:12;11.10;99.90
59847;DHT22;45728;48.788;2.302;2024-01-30T03:13:38;11.00;99.90
59847;DHT22;45728;48.788;2.302;2024-01-30T03:16:04;11.00;99.90
59847;DHT22;45728;48.788;2.302;2024-01-30T03:18:30;11.10;99.90
59847;DHT22;45728;48.788;2.302;2024-01-30T03:20:56;11.00;99.90
59847;DHT22;45728;48.788;2.302;2024-01-30T03:23:22;11.00;99.90
59847;DHT22;45728;48.788;2.302;2024-01-30T03:25:48;11.00;99.90
59847;DHT22;45728;48.788;2.302;2024-01-30T03:28:14;11.00;99.90
59847;DHT22;45728;48.788;2.302;2024-01-30T03:30:40;11.00;99.90
59847;DHT22;45728;48.788;2.302;2024-01-30T03:33:06;11.00;99.90
59847;DHT22;45728;48.788;2.302;2024-01-30T03:35:32;10.90;99.90
59847;DHT22;45728;48.788;2.302;2024-01-30T03:37:58;11.00;99.90
59847;DHT22;45728;48.788;2.302;2024-01-30T03:40:24;10.90;99.90
59847;DHT22;45728;48.788;2.302;2024-01-30T03:42:50;10.90;99.90
59847;DHT22;45728;48.788;2.302;2024-01-30T03:45:16;10.90;99.90
59847;DHT22;45728;48.788;2.302;2024-01-30T03:47:45;10.80;99.90
59847;DHT22;45728;48.788;2.302;2024-01-30T03:50:11;10.80;99.90
59847;DHT22;45728;48.788;2.302;2024-01-30T03:52:38;10.90;99.90
59847;DHT22;45728;48.788;2.302;2024-01-30T03:55:04;10.90;99.90
59847;DHT22;45728;48.788;2.302;2024-01-30T03:57:30;10.90;99.90
59847;DHT22;45728;48.788;2.302;2024-01-30T03:59:56;10.90;99.90
59847;DHT22;45728;48.788;2.302;2024-01-30T04:02:22;11.00;99.90
59847;DHT22;45728;48.788;2.302;2024-01-30T04:04:48;11.00;99.90
59847;DHT22;45728;48.788;2.302;2024-01-30T04:07:15;11.00;99.90
59847;DHT22;45728;48.788;2.302;2024-01-30T04:09:41;10.90;99.90
59847;DHT22;45728;48.788;2.302;2024-01-30T04:12:07;10.90;99.90
59847;DHT22;45728;48.788;2.302;2024-01-30T04:14:33;10.90;99.90
59847;DHT22;45728;48.788;2.302;2024-01-30T04:16:59;10.90;99.90
59847;DHT22;45728;48.788;2.302;2024-01-30T04:19:25;10.90;99.90
59847;DHT22;45728;48.788;2.302;2024-01-30T04:21:51;10.90;99.90
59847;DHT22;45728;48.788;2.302;2024-01-30T04:24:17;10.90;99.90
59847;DHT22;45728;48.788;2.302;2024-01-30T04:26:44;10.90;99.90
59847;DHT22;45728;48.788;2.302;2024-01-30T04:29:10;10.90;99.90
59847;DHT22;45728;48.788;2.302;2024-01-30T04:31:36;10.80;99.90
59847;DHT22;45728;48.788;2.302;2024-01-30T04:34:02;10.80;99.90
59847;DHT22;45728;48.788;2.302;2024-01-30T04:36:29;10.90;99.90
59847;DHT22;45728;48.788;2.302;2024-01-30T04:38:55;10.90;99.90
59847;DHT22;45728;48.788;2.302;2024-01-30T04:41:21;10.90;99.90
59847;DHT22;45728;48.788;2.302;2024-01-30T04:43:47;10.90;99.90
59847;DHT22;45728;48.788;2.302;2024-01-30T04:46:13;10.90;99.90
59847;DHT22;45728;48.788;2.302;2024-01-30T04:48:39;10.90;99.90
59847;DHT22;45728;48.788;2.302;2024-01-30T04:51:05;10.90;99.90
59847;DHT22;45728;48.788;2.302;2024-01-30T04:53:31;10.90;99.90
59847;DHT22;45728;48.788;2.302;2024-01-30T04:55:57;10.90;99.90
59847;DHT22;45728;48.788;2.302;2024-01-30T04:58:23;10.90;99.90
59847;DHT22;45728;48.788;2.302;2024-01-30T05:00:49;10.90;99.90
59847;DHT22;45728;48.788;2.302;2024-01-30T05:03:19;10.80;99.90
59847;DHT22;45728;48.788;2.302;2024-01-30T05:05:45;10.80;99.90
59847;DHT22;45728;48.788;2.302;2024-01-30T05:08:11;10.80;99.90
59847;DHT22;45728;48.788;2.302;2024-01-30T05:10:37;10.80;99.90
59847;DHT22;45728;48.788;2.302;2024-01-30T05:13:03;10.80;99.90
59847;DHT22;45728;48.788;2.302;2024-01-30T05:15:29;10.80;99.90
59847;DHT22;45728;48.788;2.302;2024-01-30T05:17:55;10.80;99.90
59847;DHT22;45728;48.788;2.302;2024-01-30T05:20:21;10.80;99.90
59847;DHT22;45728;48.788;2.302;2024-01-30T05:22:47;10.80;99.90
59847;DHT22;45728;48.788;2.302;2024-01-30T05:25:13;10.80;99.90
59847;DHT22;45728;48.788;2.302;2024-01-30T05:27:39;10.80;99.90
59847;DHT22;45728;48.788;2.302;2024-01-30T05:30:06;10.80;99.90
59847;DHT22;45728;48.788;2.302;2024-01-30T05:32:33;10.80;99.90
59847;DHT22;45728;48.788;2.302;2024-01-30T05:34:59;10.80;99.90
59847;DHT22;45728;48.788;2.302;2024-01-30T05:37:25;10.80;99.90
59847;DHT22;45728;48.788;2.302;2024-01-30T05:39:51;10.90;99.90
59847;DHT22;45728;48.788;2.302;2024-01-30T05:42:17;10.90;99.90
59847;DHT22;45728;48.788;2.302;2024-01-30T05:44:43;10.90;99.90
59847;DHT22;45728;48.788;2.302;2024-01-30T05:47:09;10.90;99.90
59847;DHT22;45728;48.788;2.302;2024-01-30T05:49:35;10.90;99.90
59847;DHT22;45728;48.788;2.302;2024-01-30T05:52:03;10.90;99.90
59847;DHT22;45728;48.788;2.302;2024-01-30T05:54:29;10.90;99.90
59847;DHT22;45728;48.788;2.302;2024-01-30T05:56:55;10.90;99.90
59847;DHT22;45728;48.788;2.302;2024-01-30T05:59:21;10.90;99.90
59847;DHT22;45728;48.788;2.302;2024-01-30T06:01:48;10.90;99.90
59847;DHT22;45728;48.788;2.302;2024-01-30T06:04:14;10.90;99.90
59847;DHT22;45728;48.788;2.302;2024-01-30T06:06:41;10.90;99.90
59847;DHT22;45728;48.788;2.302;2024-01-30T06:09:07;10.90;99.90
59847;DHT22;45728;48.788;2.302;2024-01-30T06:11:36;10.80;99.90
59847;DHT22;45728;48.788;2.302;2024-01-30T06:14:02;10.80;99.90
59847;DHT22;45728;48.788;2.302;2024-01-30T06:16:28;10.80;99.90
59847;DHT22;45728;48.788;2.302;2024-01-30T06:18:56;10.80;99.90
59847;DHT22;45728;48.788;2.302;2024-01-30T06:21:22;10.80;99.90
59847;DHT22;45728;48.788;2.302;2024-01-30T06:23:48;10.80;99.90
59847;DHT22;45728;48.788;2.302;2024-01-30T06:26:14;10.80;99.90
59847;DHT22;45728;48.788;2.302;2024-01-30T06:28:40;10.80;99.90
59847;DHT22;45728;48.788;2.302;2024-01-30T06:31:06;10.80;99.90
59847;DHT22;45728;48.788;2.302;2024-01-30T06:33:32;10.70;99.90
59847;DHT22;45728;48.788;2.302;2024-01-30T06:35:58;10.70;99.90
59847;DHT22;45728;48.788;2.302;2024-01-30T06:38:24;10.80;99.90
59847;DHT22;45728;48.788;2.302;2024-01-30T06:40:50;10.80;99.90
59847;DHT22;45728;48.788;2.302;2024-01-30T06:43:16;10.90;99.90
59847;DHT22;45728;48.788;2.302;2024-01-30T06:45:42;10.90;99.90
59847;DHT22;45728;48.788;2.302;2024-01-30T06:48:08;11.00;99.90
59847;DHT22;45728;48.788;2.302;2024-01-30T06:50:34;10.90;99.90
59847;DHT22;45728;48.788;2.302;2024-01-30T06:53:00;10.90;99.90
59847;DHT22;45728;48.788;2.302;2024-01-30T06:55:26;11.00;99.90
59847;DHT22;45728;48.788;2.302;2024-01-30T06:57:52;11.00;99.90
59847;DHT22;45728;48.788;2.302;2024-01-30T07:00:19;11.00;99.90
59847;DHT22;45728;48.788;2.302;2024-01-30T07:02:45;11.00;99.90
59847;DHT22;45728;48.788;2.302;2024-01-30T07:05:11;10.90;99.90
59847;DHT22;45728;48.788;2.302;2024-01-30T07:07:37;10.90;99.90
59847;DHT22;45728;48.788;2.302;2024-01-30T07:10:03;10.90;99.90
59847;DHT22;45728;48.788;2.302;2024-01-30T07:12:31;10.90;99.90
59847;DHT22;45728;48.788;2.302;2024-01-30T07:14:57;10.90;99.90
59847;DHT22;45728;48.788;2.302;2024-01-30T07:17:25;11.00;99.90
59847;DHT22;45728;48.788;2.302;2024-01-30T07:19:51;11.00;99.90
59847;DHT22;45728;48.788;2.302;2024-01-30T07:22:17;11.00;99.90
59847;DHT22;45728;48.788;2.302;2024-01-30T07:24:43;11.00;99.90
59847;DHT22;45728;48.788;2.302;2024-01-30T07:27:14;11.00;99.90
59847;DHT22;45728;48.788;2.302;2024-01-30T07:29:40;11.00;99.90
59847;DHT22;45728;48.788;2.302;2024-01-30T07:32:06;10.90;99.90
59847;DHT22;45728;48.788;2.302;2024-01-30T07:34:32;10.90;99.90
59847;DHT22;45728;48.788;2.302;2024-01-30T07:36:58;11.00;99.90
59847;DHT22;45728;48.788;2.302;2024-01-30T07:39:24;11.00;99.90
59847;DHT22;45728;48.788;2.302;2024-01-30T07:41:50;11.00;99.90
59847;DHT22;45728;48.788;2.302;2024-01-30T07:44:16;11.00;99.90
59847;DHT22;45728;48.788;2.302;2024-01-30T07:46:42;11.00;99.90
59847;DHT22;45728;48.788;2.302;2024-01-30T07:49:08;11.00;99.90
59847;DHT22;45728;48.788;2.302;2024-01-30T07:51:36;11.00;99.90
59847;DHT22;45728;48.788;2.302;2024-01-30T07:54:02;11.00;99.90
59847;DHT22;45728;48.788;2.302;2024-01-30T07:56:28;11.00;99.90
59847;DHT22;45728;48.788;2.302;2024-01-30T07:58:54;11.00;99.90
59847;DHT22;45728;48.788;2.302;2024-01-30T08:01:20;11.00;99.90
59847;DHT22;45728;48.788;2.302;2024-01-30T08:03:46;11.00;99.90
59847;DHT22;45728;48.788;2.302;2024-01-30T08:06:12;11.00;99.90
59847;DHT22;45728;48.788;2.302;2024-01-30T08:08:38;11.00;99.90
59847;DHT22;45728;48.788;2.302;2024-01-30T08:11:04;11.10;99.90
59847;DHT22;45728;48.788;2.302;2024-01-30T08:13:30;11.10;99.90
59847;DHT22;45728;48.788;2.302;2024-01-30T08:15:57;11.10;99.90
59847;DHT22;45728;48.788;2.302;2024-01-30T08:18:23;11.10;99.90
59847;DHT22;45728;48.788;2.302;2024-01-30T08:20:49;11.10;99.90
59847;DHT22;45728;48.788;2.302;2024-01-30T08:23:15;11.10;99.90
59847;DHT22;45728;48.788;2.302;2024-01-30T08:25:41;11.00;99.90
59847;DHT22;45728;48.788;2.302;2024-01-30T08:28:07;11.00;99.90
59847;DHT22;45728;48.788;2.302;2024-01-30T08:30:33;11.00;99.90
59847;DHT22;45728;48.788;2.302;2024-01-30T08:32:59;11.00;99.90
59847;DHT22;45728;48.788;2.302;2024-01-30T08:35:26;11.00;99.90
59847;DHT22;45728;48.788;2.302;2024-01-30T08:37:52;11.00;99.90
59847;DHT22;45728;48.788;2.302;2024-01-30T08:40:20;11.00;99.90
59847;DHT22;45728;48.788;2.302;2024-01-30T08:42:46;11.10;99.90
59847;DHT22;45728;48.788;2.302;2024-01-30T08:45:12;11.10;99.90
59847;DHT22;45728;48.788;2.302;2024-01-30T08:47:38;11.10;99.90
59847;DHT22;45728;48.788;2.302;2024-01-30T08:50:04;11.10;99.90
59847;DHT22;45728;48.788;2.302;2024-01-30T08:52:31;11.10;99.90
59847;DHT22;45728;48.788;2.302;2024-01-30T08:54:57;11.10;99.90
59847;DHT22;45728;48.788;2.302;2024-01-30T08:57:23;11.10;99.90
59847;DHT22;45728;48.788;2.302;2024-01-30T08:59:49;11.10;99.90
59847;DHT22;45728;48.788;2.302;2024-01-30T09:02:15;11.10;99.90
59847;DHT22;45728;48.788;2.302;2024-01-30T09:04:43;11.10;99.90
59847;DHT22;45728;48.788;2.302;2024-01-30T09:07:10;11.10;99.90
59847;DHT22;45728;48.788;2.302;2024-01-30T09:09:38;11.10;99.90
59847;DHT22;45728;48.788;2.302;2024-01-30T09:12:05;11.20;99.90
59847;DHT22;45728;48.788;2.302;2024-01-30T09:14:34;11.20;99.90
59847;DHT22;45728;48.788;2.302;2024-01-30T09:17:00;11.20;99.90
59847;DHT22;45728;48.788;2.302;2024-01-30T09:19:26;11.20;99.90
59847;DHT22;45728;48.788;2.302;2024-01-30T09:21:52;11.20;99.90
59847;DHT22;45728;48.788;2.302;2024-01-30T09:24:18;11.20;99.90
59847;DHT22;45728;48.788;2.302;2024-01-30T09:26:44;11.20;99.90
59847;DHT22;45728;48.788;2.302;2024-01-30T09:29:10;11.10;99.90
59847;DHT22;45728;48.788;2.302;2024-01-30T09:31:36;11.20;99.90
59847;DHT22;45728;48.788;2.302;2024-01-30T09:34:02;11.20;99.90
59847;DHT22;45728;48.788;2.302;2024-01-30T09:36:29;11.20;99.90
59847;DHT22;45728;48.788;2.302;2024-01-30T09:38:55;11.20;99.90
59847;DHT22;45728;48.788;2.302;2024-01-30T09:41:24;11.30;99.90
59847;DHT22;45728;48.788;2.302;2024-01-30T09:43:50;11.20;99.90
59847;DHT22;45728;48.788;2.302;2024-01-30T09:46:17;11.30;99.90
59847;DHT22;45728;48.788;2.302;2024-01-30T09:48:46;11.30;99.90
59847;DHT22;45728;48.788;2.302;2024-01-30T09:51:14;11.30;99.90
59847;DHT22;45728;48.788;2.302;2024-01-30T09:53:42;11.20;99.90
59847;DHT22;45728;48.788;2.302;2024-01-30T09:56:09;11.20;99.90
59847;DHT22;45728;48.788;2.302;2024-01-30T09:58:37;11.20;99.90
59847;DHT22;45728;48.788;2.302;2024-01-30T10:01:03;11.20;99.90
59847;DHT22;45728;48.788;2.302;2024-01-30T10:03:29;11.30;99.90
59847;DHT22;45728;48.788;2.302;2024-01-30T10:05:56;11.20;99.90
59847;DHT22;45728;48.788;2.302;2024-01-30T10:08:22;11.30;99.90
59847;DHT22;45728;48.788;2.302;2024-01-30T10:10:49;11.30;99.90
59847;DHT22;45728;48.788;2.302;2024-01-30T10:13:18;11.20;99.90
59847;DHT22;45728;48.788;2.302;2024-01-30T10:15:44;11.30;99.90
59847;DHT22;45728;48.788;2.302;2024-01-30T10:18:11;11.40;99.90
59847;DHT22;45728;48.788;2.302;2024-01-30T10:20:37;11.30;99.90
59847;DHT22;45728;48.788;2.302;2024-01-30T10:23:03;11.30;99.90
59847;DHT22;45728;48.788;2.302;2024-01-30T10:25:31;11.30;99.90
59847;DHT22;45728;48.788;2.302;2024-01-30T10:27:58;11.30;99.90
59847;DHT22;45728;48.788;2.302;2024-01-30T10:30:25;11.40;99.90
59847;DHT22;45728;48.788;2.302;2024-01-30T10:32:51;11.40;99.90
59847;DHT22;45728;48.788;2.302;2024-01-30T10:35:17;11.50;99.90
59847;DHT22;45728;48.788;2.302;2024-01-30T10:37:44;11.40;99.90
59847;DHT22;45728;48.788;2.302;2024-01-30T10:40:14;11.50;99.90
59847;DHT22;45728;48.788;2.302;2024-01-30T10:42:45;11.40;99.90
59847;DHT22;45728;48.788;2.302;2024-01-30T10:45:12;11.50;99.90
59847;DHT22;45728;48.788;2.302;2024-01-30T10:47:48;11.50;99.90
59847;DHT22;45728;48.788;2.302;2024-01-30T10:50:15;11.50;99.90
59847;DHT22;45728;48.788;2.302;2024-01-30T10:52:41;11.60;99.90
59847;DHT22;45728;48.788;2.302;2024-01-30T10:55:08;11.60;99.90
59847;DHT22;45728;48.788;2.302;2024-01-30T10:57:35;11.60;99.90
59847;DHT22;45728;48.788;2.302;2024-01-30T11:00:07;11.60;99.90
59847;DHT22;45728;48.788;2.302;2024-01-30T11:02:40;11.70;99.90
59847;DHT22;45728;48.788;2.302;2024-01-30T11:05:07;11.70;99.90
59847;DHT22;45728;48.788;2.302;2024-01-30T11:07:34;11.70;99.90
59847;DHT22;45728;48.788;2.302;2024-01-30T11:10:01;11.70;99.90
59847;DHT22;45728;48.788;2.302;2024-01-30T11:12:29;11.70;99.90
59847;DHT22;45728;48.788;2.302;2024-01-30T11:15:09;11.70;99.90
59847;DHT22;45728;48.788;2.302;2024-01-30T11:17:53;11.70;99.90
59847;DHT22;45728;48.788;2.302;2024-01-30T11:20:28;11.80;99.90
59847;DHT22;45728;48.788;2.302;2024-01-30T11:22:57;11.80;99.90
59847;DHT22;45728;48.788;2.302;2024-01-30T11:25:25;11.80;99.90
59847;DHT22;45728;48.788;2.302;2024-01-30T11:27:53;11.90;99.90
59847;DHT22;45728;48.788;2.302;2024-01-30T11:33:08;11.90;99.90
59847;DHT22;45728;48.788;2.302;2024-01-30T11:35:36;11.90;99.90
59847;DHT22;45728;48.788;2.302;2024-01-30T11:38:03;11.90;99.90
59847;DHT22;45728;48.788;2.302;2024-01-30T11:40:30;12.00;99.90
59847;DHT22;45728;48.788;2.302;2024-01-30T11:42:59;12.10;99.90
59847;DHT22;45728;48.788;2.302;2024-01-30T11:45:28;12.10;99.90
59847;DHT22;45728;48.788;2.302;2024-01-30T11:47:55;12.10;99.90
59847;DHT22;45728;48.788;2.302;2024-01-30T11:50:21;12.20;99.90
59847;DHT22;45728;48.788;2.302;2024-01-30T11:52:48;12.20;99.90
59847;DHT22;45728;48.788;2.302;2024-01-30T11:55:17;12.20;99.90
59847;DHT22;45728;48.788;2.302;2024-01-30T11:57:43;12.20;99.90
59847;DHT22;45728;48.788;2.302;2024-01-30T12:00:16;12.20;99.90
59847;DHT22;45728;48.788;2.302;2024-01-30T12:02:48;12.20;99.90
59847;DHT22;45728;48.788;2.302;2024-01-30T12:05:15;12.30;99.90
59847;DHT22;45728;48.788;2.302;2024-01-30T12:07:44;12.30;99.90
59847;DHT22;45728;48.788;2.302;2024-01-30T12:10:10;12.30;99.90
59847;DHT22;45728;48.788;2.302;2024-01-30T12:12:37;12.30;99.90
59847;DHT22;45728;48.788;2.302;2024-01-30T12:15:04;12.20;99.90
59847;DHT22;45728;48.788;2.302;2024-01-30T12:17:33;12.20;99.90
59847;DHT22;45728;48.788;2.302;2024-01-30T12:22:46;12.10;99.90
59847;DHT22;45728;48.788;2.302;2024-01-30T12:25:20;12.10;99.90
59847;DHT22;45728;48.788;2.302;2024-01-30T12:27:48;12.10;99.90
59847;DHT22;45728;48.788;2.302;2024-01-30T12:30:19;12.20;99.90
59847;DHT22;45728;48.788;2.302;2024-01-30T12:32:47;12.20;99.90
59847;DHT22;45728;48.788;2.302;2024-01-30T12:35:17;12.20;99.90
59847;DHT22;45728;48.788;2.302;2024-01-30T12:37:44;12.10;99.90
59847;DHT22;45728;48.788;2.302;2024-01-30T12:40:11;12.10;99.90
59847;DHT22;45728;48.788;2.302;2024-01-30T12:42:39;12.10;99.90
59847;DHT22;45728;48.788;2.302;2024-01-30T12:45:05;12.10;99.90
59847;DHT22;45728;48.788;2.302;2024-01-30T12:47:32;12.00;99.90
59847;DHT22;45728;48.788;2.302;2024-01-30T12:49:58;11.90;99.90
59847;DHT22;45728;48.788;2.302;2024-01-30T12:52:24;11.80;99.90
59847;DHT22;45728;48.788;2.302;2024-01-30T12:54:51;11.90;99.90
59847;DHT22;45728;48.788;2.302;2024-01-30T12:57:17;11.90;99.90
59847;DHT22;45728;48.788;2.302;2024-01-30T12:59:44;11.90;99.90
59847;DHT22;45728;48.788;2.302;2024-01-30T13:02:12;11.90;99.90
59847;DHT22;45728;48.788;2.302;2024-01-30T13:04:39;11.80;99.90
59847;DHT22;45728;48.788;2.302;2024-01-30T13:07:05;11.80;99.90
59847;DHT22;45728;48.788;2.302;2024-01-30T13:09:31;11.70;99.90
59847;DHT22;45728;48.788;2.302;2024-01-30T13:11:58;11.70;99.90
59847;DHT22;45728;48.788;2.302;2024-01-30T13:14:24;11.80;99.90
59847;DHT22;45728;48.788;2.302;2024-01-30T13:16:50;11.70;99.90
59847;DHT22;45728;48.788;2.302;2024-01-30T13:19:17;11.70;99.90
59847;DHT22;45728;48.788;2.302;2024-01-30T13:21:43;11.80;99.90
59847;DHT22;45728;48.788;2.302;2024-01-30T13:24:09;11.80;99.90
59847;DHT22;45728;48.788;2.302;2024-01-30T13:26:36;11.80;99.90
59847;DHT22;45728;48.788;2.302;2024-01-30T13:29:02;11.80;99.90
59847;DHT22;45728;48.788;2.302;2024-01-30T13:31:29;11.80;99.90
59847;DHT22;45728;48.788;2.302;2024-01-30T13:33:55;11.80;99.90
59847;DHT22;45728;48.788;2.302;2024-01-30T13:36:22;11.70;99.90
59847;DHT22;45728;48.788;2.302;2024-01-30T13:38:48;11.70;99.90
59847;DHT22;45728;48.788;2.302;2024-01-30T13:41:14;11.80;99.90
59847;DHT22;45728;48.788;2.302;2024-01-30T13:43:43;11.80;99.90
59847;DHT22;45728;48.788;2.302;2024-01-30T13:46:10;11.80;99.90
59847;DHT22;45728;48.788;2.302;2024-01-30T13:48:36;11.90;99.90
59847;DHT22;45728;48.788;2.302;2024-01-30T13:51:02;11.90;99.90
59847;DHT22;45728;48.788;2.302;2024-01-30T13:53:28;11.90;99.90
59847;DHT22;45728;48.788;2.302;2024-01-30T13:55:54;11.90;99.90
59847;DHT22;45728;48.788;2.302;2024-01-30T13:58:21;12.00;99.90
59847;DHT22;45728;48.788;2.302;2024-01-30T14:00:47;12.00;99.90
59847;DHT22;45728;48.788;2.302;2024-01-30T14:03:13;12.00;99.90
59847;DHT22;45728;48.788;2.302;2024-01-30T14:05:39;12.00;99.90
59847;DHT22;45728;48.788;2.302;2024-01-30T14:08:06;12.00;99.90
59847;DHT22;45728;48.788;2.302;2024-01-30T14:10:34;12.10;99.90
59847;DHT22;45728;48.788;2.302;2024-01-30T14:13:00;12.00;99.90
59847;DHT22;45728;48.788;2.302;2024-01-30T14:15:26;12.00;99.90
59847;DHT22;45728;48.788;2.302;2024-01-30T14:17:52;11.90;99.90
59847;DHT22;45728;48.788;2.302;2024-01-30T14:20:19;11.90;99.90
59847;DHT22;45728;48.788;2.302;2024-01-30T14:22:45;11.80;99.90
59847;DHT22;45728;48.788;2.302;2024-01-30T14:25:11;11.80;99.90
59847;DHT22;45728;48.788;2.302;2024-01-30T14:27:38;11.80;99.90
59847;DHT22;45728;48.788;2.302;2024-01-30T14:30:04;11.90;99.90
59847;DHT22;45728;48.788;2.302;2024-01-30T14:32:30;11.80;99.90
59847;DHT22;45728;48.788;2.302;2024-01-30T14:34:57;11.80;99.90
59847;DHT22;45728;48.788;2.302;2024-01-30T14:37:23;11.80;99.90
59847;DHT22;45728;48.788;2.302;2024-01-30T14:39:49;11.90;99.90
59847;DHT22;45728;48.788;2.302;2024-01-30T14:42:15;11.90;99.90
59847;DHT22;45728;48.788;2.302;2024-01-30T14:44:42;11.90;99.90
59847;DHT22;45728;48.788;2.302;2024-01-30T14:47:08;11.90;99.90
59847;DHT22;45728;48.788;2.302;2024-01-30T14:49:34;11.90;99.90
59847;DHT22;45728;48.788;2.302;2024-01-30T14:52:00;11.90;99.90
59847;DHT22;45728;48.788;2.302;2024-01-30T14:54:27;11.90;99.90
59847;DHT22;45728;48.788;2.302;2024-01-30T14:56:53;11.90;99.90
59847;DHT22;45728;48.788;2.302;2024-01-30T14:59:19;11.80;99.90
59847;DHT22;45728;48.788;2.302;2024-01-30T15:01:46;11.80;99.90
59847;DHT22;45728;48.788;2.302;2024-01-30T15:04:12;11.80;99.90
59847;DHT22;45728;48.788;2.302;2024-01-30T15:06:38;11.70;99.90
59847;DHT22;45728;48.788;2.302;2024-01-30T15:09:09;11.70;99.90
59847;DHT22;45728;48.788;2.302;2024-01-30T15:11:35;11.70;99.90
59847;DHT22;45728;48.788;2.302;2024-01-30T15:14:01;11.70;99.90
59847;DHT22;45728;48.788;2.302;2024-01-30T15:16:27;11.80;99.90
59847;DHT22;45728;48.788;2.302;2024-01-30T15:18:54;11.80;99.90
59847;DHT22;45728;48.788;2.302;2024-01-30T15:21:20;11.80;99.90
59847;DHT22;45728;48.788;2.302;2024-01-30T15:23:48;11.70;99.90
59847;DHT22;45728;48.788;2.302;2024-01-30T15:26:14;11.70;99.90
59847;DHT22;45728;48.788;2.302;2024-01-30T15:28:40;11.70;99.90
59847;DHT22;45728;48.788;2.302;2024-01-30T15:31:07;11.70;99.90